sensor_id;sensor_type;location;lat;lon;timestamp;pressure;altitude;pressure_sealevel;temperature;humidity
68807;BME280;55800;54.272;18.558;2023-02-01T00:02:15;99210.22;;;3.59;77.80
68807;BME280;55800;54.272;18.558;2023-02-01T00:04:45;99211.81;;;3.63;77.51
68807;BME280;55800;54.272;18.558;2023-02-01T00:07:14;99198.50;;;3.66;77.58
68807;BME280;55800;54.272;18.558;2023-02-01T00:09:43;99210.94;;;3.63;77.86
68807;BME280;55800;54.272;18.558;2023-02-01T00:12:12;99205.66;;;3.63;77.93
68807;BME280;55800;54.272;18.558;2023-02-01T00:14:42;99191.56;;;3.64;78.18
68807;BME280;55800;54.272;18.558;2023-02-01T00:17:11;99210.13;;;3.62;78.34
68807;BME280;55800;54.272;18.558;2023-02-01T00:19:41;99210.13;;;3.62;78.46
68807;BME280;55800;54.272;18.558;2023-02-01T00:22:11;99219.91;;;3.59;78.75
68807;BME280;55800;54.272;18.558;2023-02-01T00:24:40;99215.50;;;3.59;78.90
68807;BME280;55800;54.272;18.558;2023-02-01T00:27:09;99218.94;;;3.61;78.86
68807;BME280;55800;54.272;18.558;2023-02-01T00:29:41;99204.88;;;3.61;78.66
68807;BME280;55800;54.272;18.558;2023-02-01T00:32:10;99209.47;;;3.56;78.90
68807;BME280;55800;54.272;18.558;2023-02-01T00:34:40;99219.91;;;3.59;78.69
68807;BME280;55800;54.272;18.558;2023-02-01T00:37:10;99227.81;;;3.60;78.50
68807;BME280;55800;54.272;18.558;2023-02-01T00:39:39;99226.81;;;3.63;78.42
68807;BME280;55800;54.272;18.558;2023-02-01T00:42:09;99218.06;;;3.61;78.50
68807;BME280;55800;54.272;18.558;2023-02-01T00:44:38;99211.94;;;3.60;78.44
68807;BME280;55800;54.272;18.558;2023-02-01T00:47:08;99214.75;;;3.56;78.77
68807;BME280;55800;54.272;18.558;2023-02-01T00:49:38;99214.75;;;3.56;78.70
68807;BME280;55800;54.272;18.558;2023-02-01T00:52:08;99214.59;;;3.60;78.90
68807;BME280;55800;54.272;18.558;2023-02-01T00:54:38;99219.06;;;3.58;78.88
68807;BME280;55800;54.272;18.558;2023-02-01T00:57:07;99202.28;;;3.59;79.02
68807;BME280;55800;54.272;18.558;2023-02-01T00:59:37;99204.06;;;3.59;78.78
68807;BME280;55800;54.272;18.558;2023-02-01T01:02:06;99209.47;;;3.56;78.95
68807;BME280;55800;54.272;18.558;2023-02-01T01:04:35;99186.44;;;3.59;78.78
68807;BME280;55800;54.272;18.558;2023-02-01T01:07:05;99189.13;;;3.58;78.85
68807;BME280;55800;54.272;18.558;2023-02-01T01:09:36;99185.69;;;3.56;78.59
68807;BME280;55800;54.272;18.558;2023-02-01T01:12:05;99191.88;;;3.55;78.56
68807;BME280;55800;54.272;18.558;2023-02-01T01:14:35;99191.00;;;3.54;78.81
68807;BME280;55800;54.272;18.558;2023-02-01T01:17:04;99185.91;;;3.50;79.05
68807;BME280;55800;54.272;18.558;2023-02-01T01:19:33;99200.03;;;3.49;79.18
68807;BME280;55800;54.272;18.558;2023-02-01T01:22:03;99191.19;;;3.50;79.20
68807;BME280;55800;54.272;18.558;2023-02-01T01:24:32;99189.31;;;3.53;78.83
68807;BME280;55800;54.272;18.558;2023-02-01T01:27:03;99200.03;;;3.49;79.20
68807;BME280;55800;54.272;18.558;2023-02-01T01:29:32;99196.44;;;3.51;79.19
68807;BME280;55800;54.272;18.558;2023-02-01T01:32:02;99192.00;;;3.52;78.97
68807;BME280;55800;54.272;18.558;2023-02-01T01:34:31;99186.72;;;3.52;79.18
68807;BME280;55800;54.272;18.558;2023-02-01T01:37:02;99195.47;;;3.54;78.95
68807;BME280;55800;54.272;18.558;2023-02-01T01:39:32;99202.44;;;3.55;78.96
68807;BME280;55800;54.272;18.558;2023-02-01T01:42:03;99200.75;;;3.54;79.11
68807;BME280;55800;54.272;18.558;2023-02-01T01:45:04;99205.97;;;3.55;79.35
68807;BME280;55800;54.272;18.558;2023-02-01T01:47:36;99211.31;;;3.54;79.26
68807;BME280;55800;54.272;18.558;2023-02-01T01:50:09;99202.56;;;3.52;79.27
68807;BME280;55800;54.272;18.558;2023-02-01T01:52:40;99196.50;;;3.50;79.27
68807;BME280;55800;54.272;18.558;2023-02-01T01:55:10;99185.91;;;3.50;79.13
68807;BME280;55800;54.272;18.558;2023-02-01T01:57:45;99195.69;;;3.48;78.96
68807;BME280;55800;54.272;18.558;2023-02-01T02:00:18;99198.31;;;3.48;78.94
68807;BME280;55800;54.272;18.558;2023-02-01T02:02:55;99204.50;;;3.47;78.80
68807;BME280;55800;54.272;18.558;2023-02-01T02:05:25;99201.78;;;3.50;78.79
68807;BME280;55800;54.272;18.558;2023-02-01T02:07:59;99199.13;;;3.50;78.88
68807;BME280;55800;54.272;18.558;2023-02-01T02:10:29;99196.59;;;3.47;79.02
68807;BME280;55800;54.272;18.558;2023-02-01T02:13:14;99191.53;;;3.41;79.25
68807;BME280;55800;54.272;18.558;2023-02-01T02:15:50;99188.09;;;3.39;79.33
68807;BME280;55800;54.272;18.558;2023-02-01T02:18:30;99193.47;;;3.36;79.74
68807;BME280;55800;54.272;18.558;2023-02-01T02:21:14;99183.81;;;3.35;79.50
68807;BME280;55800;54.272;18.558;2023-02-01T02:27:06;99207.97;;;3.24;79.79
68807;BME280;55800;54.272;18.558;2023-02-01T02:33:27;99221.34;;;3.20;79.68
68807;BME280;55800;54.272;18.558;2023-02-01T02:36:00;99225.00;;;3.15;79.74
68807;BME280;55800;54.272;18.558;2023-02-01T02:38:36;99230.28;;;3.15;79.83
68807;BME280;55800;54.272;18.558;2023-02-01T02:41:15;99234.69;;;3.15;79.82
68807;BME280;55800;54.272;18.558;2023-02-01T02:44:12;99239.09;;;3.14;79.70
68807;BME280;55800;54.272;18.558;2023-02-01T02:47:05;99233.72;;;3.17;79.41
68807;BME280;55800;54.272;18.558;2023-02-01T02:50:03;99231.13;;;3.16;79.60
68807;BME280;55800;54.272;18.558;2023-02-01T02:53:07;99252.25;;;3.16;79.80
68807;BME280;55800;54.272;18.558;2023-02-01T02:55:58;99295.41;;;3.15;79.68
68807;BME280;55800;54.272;18.558;2023-02-01T02:58:46;99276.31;;;3.07;79.59
68807;BME280;55800;54.272;18.558;2023-02-01T03:01:34;99279.88;;;3.06;79.22
68807;BME280;55800;54.272;18.558;2023-02-01T03:04:21;99258.81;;;3.04;79.07
68807;BME280;55800;54.272;18.558;2023-02-01T03:06:54;99256.31;;;3.00;78.84
68807;BME280;55800;54.272;18.558;2023-02-01T03:09:27;99258.22;;;2.95;78.90
68807;BME280;55800;54.272;18.558;2023-02-01T03:12:03;99240.75;;;2.92;79.09
68807;BME280;55800;54.272;18.558;2023-02-01T03:14:57;99222.41;;;2.88;78.97
68807;BME280;55800;54.272;18.558;2023-02-01T03:17:32;99232.16;;;2.86;78.89
68807;BME280;55800;54.272;18.558;2023-02-01T03:20:07;99236.72;;;2.81;79.10
68807;BME280;55800;54.272;18.558;2023-02-01T03:22:40;99236.00;;;2.76;79.17
68807;BME280;55800;54.272;18.558;2023-02-01T03:25:15;99237.78;;;2.75;79.28
68807;BME280;55800;54.272;18.558;2023-02-01T03:27:53;99233.41;;;2.74;79.51
68807;BME280;55800;54.272;18.558;2023-02-01T03:33:47;99237.72;;;2.77;79.95
68807;BME280;55800;54.272;18.558;2023-02-01T03:36:20;99229.66;;;2.81;80.35
68807;BME280;55800;54.272;18.558;2023-02-01T03:39:00;99228.66;;;2.85;80.38
68807;BME280;55800;54.272;18.558;2023-02-01T03:41:37;99252.31;;;2.88;80.60
68807;BME280;55800;54.272;18.558;2023-02-01T03:44:13;99242.56;;;2.90;80.72
68807;BME280;55800;54.272;18.558;2023-02-01T03:46:48;99239.72;;;2.96;80.95
68807;BME280;55800;54.272;18.558;2023-02-01T03:49:23;99246.63;;;3.00;80.81
68807;BME280;55800;54.272;18.558;2023-02-01T03:51:54;99242.97;;;3.04;80.73
68807;BME280;55800;54.272;18.558;2023-02-01T03:54:28;99245.66;;;3.03;80.66
68807;BME280;55800;54.272;18.558;2023-02-01T03:56:59;99253.44;;;3.07;80.77
68807;BME280;55800;54.272;18.558;2023-02-01T03:59:30;99255.06;;;3.11;80.52
68807;BME280;55800;54.272;18.558;2023-02-01T04:02:00;99252.44;;;3.10;80.81
68807;BME280;55800;54.272;18.558;2023-02-01T04:04:30;99246.13;;;3.15;80.53
68807;BME280;55800;54.272;18.558;2023-02-01T04:06:59;99234.53;;;3.20;80.42
68807;BME280;55800;54.272;18.558;2023-02-01T04:09:31;99241.59;;;3.19;80.38
68807;BME280;55800;54.272;18.558;2023-02-01T04:12:00;99228.38;;;3.19;80.28
68807;BME280;55800;54.272;18.558;2023-02-01T04:14:30;99237.06;;;3.23;80.49
68807;BME280;55800;54.272;18.558;2023-02-01T04:16:59;99227.41;;;3.22;80.57
68807;BME280;55800;54.272;18.558;2023-02-01T04:19:28;99236.22;;;3.22;80.35
68807;BME280;55800;54.272;18.558;2023-02-01T04:21:57;99231.75;;;3.24;80.20
68807;BME280;55800;54.272;18.558;2023-02-01T04:24:27;99222.06;;;3.23;80.33
68807;BME280;55800;54.272;18.558;2023-02-01T04:26:57;99228.22;;;3.24;80.45
68807;BME280;55800;54.272;18.558;2023-02-01T04:29:27;99223.84;;;3.23;80.64
68807;BME280;55800;54.272;18.558;2023-02-01T04:31:56;99235.28;;;3.23;80.68
68807;BME280;55800;54.272;18.558;2023-02-01T04:34:25;99239.59;;;3.26;80.44
68807;BME280;55800;54.272;18.558;2023-02-01T04:36:56;99232.56;;;3.25;80.36
68807;BME280;55800;54.272;18.558;2023-02-01T04:39:25;99231.78;;;3.23;80.28
68807;BME280;55800;54.272;18.558;2023-02-01T04:41:54;99235.34;;;3.22;80.24
68807;BME280;55800;54.272;18.558;2023-02-01T04:44:25;99225.75;;;3.19;80.14
68807;BME280;55800;54.272;18.558;2023-02-01T04:46:55;99228.44;;;3.17;79.92
68807;BME280;55800;54.272;18.558;2023-02-01T04:49:24;99226.63;;;3.20;79.69
68807;BME280;55800;54.272;18.558;2023-02-01T04:51:54;99218.78;;;3.16;79.62
68807;BME280;55800;54.272;18.558;2023-02-01T04:54:24;99224.88;;;3.18;79.42
68807;BME280;55800;54.272;18.558;2023-02-01T04:56:53;99234.59;;;3.18;79.42
68807;BME280;55800;54.272;18.558;2023-02-01T04:59:22;99222.22;;;3.18;79.30
68807;BME280;55800;54.272;18.558;2023-02-01T05:01:53;99219.72;;;3.15;79.40
68807;BME280;55800;54.272;18.558;2023-02-01T05:04:22;99228.44;;;3.17;79.67
68807;BME280;55800;54.272;18.558;2023-02-01T05:06:51;99234.63;;;3.16;79.71
68807;BME280;55800;54.272;18.558;2023-02-01T05:09:21;99237.25;;;3.16;79.96
68807;BME280;55800;54.272;18.558;2023-02-01T05:11:50;99240.72;;;3.18;80.09
68807;BME280;55800;54.272;18.558;2023-02-01T05:14:34;99239.91;;;3.16;80.32
68807;BME280;55800;54.272;18.558;2023-02-01T05:17:04;99231.09;;;3.17;80.31
68807;BME280;55800;54.272;18.558;2023-02-01T05:19:34;99230.06;;;3.22;80.33
68807;BME280;55800;54.272;18.558;2023-02-01T05:22:03;99216.78;;;3.23;80.18
68807;BME280;55800;54.272;18.558;2023-02-01T05:24:32;99226.41;;;3.26;80.11
68807;BME280;55800;54.272;18.558;2023-02-01T05:27:01;99223.66;;;3.29;80.27
68807;BME280;55800;54.272;18.558;2023-02-01T05:29:30;99217.44;;;3.30;80.21
68807;BME280;55800;54.272;18.558;2023-02-01T05:32:00;99221.81;;;3.31;80.20
68807;BME280;55800;54.272;18.558;2023-02-01T05:34:49;99224.41;;;3.32;80.33
68807;BME280;55800;54.272;18.558;2023-02-01T05:37:19;99212.91;;;3.33;80.26
68807;BME280;55800;54.272;18.558;2023-02-01T05:39:48;99211.94;;;3.36;80.49
68807;BME280;55800;54.272;18.558;2023-02-01T05:42:17;99209.31;;;3.36;80.34
68807;BME280;55800;54.272;18.558;2023-02-01T05:44:46;99213.72;;;3.35;80.49
68807;BME280;55800;54.272;18.558;2023-02-01T05:47:15;99197.72;;;3.40;80.58
68807;BME280;55800;54.272;18.558;2023-02-01T05:49:45;99206.50;;;3.40;80.58
68807;BME280;55800;54.272;18.558;2023-02-01T05:52:15;99203.88;;;3.40;80.55
68807;BME280;55800;54.272;18.558;2023-02-01T05:54:47;99206.44;;;3.42;80.48
68807;BME280;55800;54.272;18.558;2023-02-01T05:57:16;99207.44;;;3.39;80.58
68807;BME280;55800;54.272;18.558;2023-02-01T05:59:46;99225.06;;;3.39;80.46
68807;BME280;55800;54.272;18.558;2023-02-01T06:02:16;99218.00;;;3.39;80.54
68807;BME280;55800;54.272;18.558;2023-02-01T06:04:46;99212.66;;;3.41;80.53
68807;BME280;55800;54.272;18.558;2023-02-01T06:07:17;99211.13;;;3.34;80.74
68807;BME280;55800;54.272;18.558;2023-02-01T06:09:46;99237.69;;;3.31;80.64
68807;BME280;55800;54.272;18.558;2023-02-01T06:12:16;99229.03;;;3.26;80.68
68807;BME280;55800;54.272;18.558;2023-02-01T06:14:45;99235.22;;;3.25;80.23
68807;BME280;55800;54.272;18.558;2023-02-01T06:17:14;99231.91;;;3.20;80.27
68807;BME280;55800;54.272;18.558;2023-02-01T06:19:44;99231.13;;;3.16;80.37
68807;BME280;55800;54.272;18.558;2023-02-01T06:22:14;99233.81;;;3.14;79.92
68807;BME280;55800;54.272;18.558;2023-02-01T06:24:44;99241.00;;;3.11;79.85
68807;BME280;55800;54.272;18.558;2023-02-01T06:27:14;99237.59;;;3.07;79.77
68807;BME280;55800;54.272;18.558;2023-02-01T06:29:43;99242.03;;;3.05;79.91
68807;BME280;55800;54.272;18.558;2023-02-01T06:32:12;99231.47;;;3.05;79.62
68807;BME280;55800;54.272;18.558;2023-02-01T06:34:42;99229.78;;;3.04;79.77
68807;BME280;55800;54.272;18.558;2023-02-01T06:37:11;99228.03;;;3.03;79.77
68807;BME280;55800;54.272;18.558;2023-02-01T06:39:40;99224.63;;;3.00;79.87
68807;BME280;55800;54.272;18.558;2023-02-01T06:42:11;99232.63;;;2.98;80.05
68807;BME280;55800;54.272;18.558;2023-02-01T06:44:41;99235.34;;;2.95;80.24
68807;BME280;55800;54.272;18.558;2023-02-01T06:47:10;99227.22;;;3.01;80.16
68807;BME280;55800;54.272;18.558;2023-02-01T06:49:39;99234.03;;;3.08;80.48
68807;BME280;55800;54.272;18.558;2023-02-01T06:52:09;99230.56;;;3.06;80.79
68807;BME280;55800;54.272;18.558;2023-02-01T06:54:38;99230.38;;;3.12;80.99
68807;BME280;55800;54.272;18.558;2023-02-01T06:57:07;99242.66;;;3.13;80.83
68807;BME280;55800;54.272;18.558;2023-02-01T06:59:38;99233.75;;;3.16;80.91
68807;BME280;55800;54.272;18.558;2023-02-01T07:02:10;99239.03;;;3.16;81.26
68807;BME280;55800;54.272;18.558;2023-02-01T07:04:39;99240.84;;;3.15;81.30
68807;BME280;55800;54.272;18.558;2023-02-01T07:07:09;99238.88;;;3.21;81.52
68807;BME280;55800;54.272;18.558;2023-02-01T07:09:38;99239.66;;;3.24;81.23
68807;BME280;55800;54.272;18.558;2023-02-01T07:12:07;99232.56;;;3.25;81.10
68807;BME280;55800;54.272;18.558;2023-02-01T07:14:38;99228.97;;;3.27;80.95
68807;BME280;55800;54.272;18.558;2023-02-01T07:17:08;99238.56;;;3.30;80.84
68807;BME280;55800;54.272;18.558;2023-02-01T07:19:37;99238.56;;;3.30;80.79
68807;BME280;55800;54.272;18.558;2023-02-01T07:22:06;99235.03;;;3.31;80.60
68807;BME280;55800;54.272;18.558;2023-02-01T07:24:36;99234.22;;;3.29;80.58
68807;BME280;55800;54.272;18.558;2023-02-01T07:27:05;99227.91;;;3.33;80.29
68807;BME280;55800;54.272;18.558;2023-02-01T07:29:34;99235.03;;;3.31;80.49
68807;BME280;55800;54.272;18.558;2023-02-01T07:32:05;99240.31;;;3.31;80.70
68807;BME280;55800;54.272;18.558;2023-02-01T07:34:34;99226.91;;;3.35;80.67
68807;BME280;55800;54.272;18.558;2023-02-01T07:37:03;99233.88;;;3.38;80.40
68807;BME280;55800;54.272;18.558;2023-02-01T07:39:33;99225.88;;;3.41;80.60
68807;BME280;55800;54.272;18.558;2023-02-01T07:42:02;99225.75;;;3.44;80.48
68807;BME280;55800;54.272;18.558;2023-02-01T07:44:31;99231.78;;;3.47;80.61
68807;BME280;55800;54.272;18.558;2023-02-01T07:47:00;99224.69;;;3.49;80.56
68807;BME280;55800;54.272;18.558;2023-02-01T07:49:31;99220.06;;;3.54;80.60
68807;BME280;55800;54.272;18.558;2023-02-01T07:52:00;99221.75;;;3.57;80.58
68807;BME280;55800;54.272;18.558;2023-02-01T07:54:30;99218.88;;;3.63;80.44
68807;BME280;55800;54.272;18.558;2023-02-01T07:56:59;99224.97;;;3.65;80.49
68807;BME280;55800;54.272;18.558;2023-02-01T07:59:28;99215.00;;;3.73;80.46
68807;BME280;55800;54.272;18.558;2023-02-01T08:01:58;99229.84;;;3.77;80.31
68807;BME280;55800;54.272;18.558;2023-02-01T08:04:26;99226.09;;;3.82;80.12
68807;BME280;55800;54.272;18.558;2023-02-01T08:06:58;99221.50;;;3.87;80.06
68807;BME280;55800;54.272;18.558;2023-02-01T08:09:27;99228.41;;;3.91;79.82
68807;BME280;55800;54.272;18.558;2023-02-01T08:11:57;99215.03;;;3.96;79.80
68807;BME280;55800;54.272;18.558;2023-02-01T08:14:26;99225.34;;;4.02;79.80
68807;BME280;55800;54.272;18.558;2023-02-01T08:16:56;99229.44;;;4.11;79.40
68807;BME280;55800;54.272;18.558;2023-02-01T08:19:25;99221.44;;;4.12;79.15
68807;BME280;55800;54.272;18.558;2023-02-01T08:21:54;99221.44;;;4.12;78.77
68807;BME280;55800;54.272;18.558;2023-02-01T08:24:25;99218.56;;;4.18;79.02
68807;BME280;55800;54.272;18.558;2023-02-01T08:26:54;99212.19;;;4.24;78.34
68807;BME280;55800;54.272;18.558;2023-02-01T08:29:24;99217.41;;;4.25;77.95
68807;BME280;55800;54.272;18.558;2023-02-01T08:31:53;99209.47;;;4.25;78.00
68807;BME280;55800;54.272;18.558;2023-02-01T08:34:23;99219.94;;;4.28;77.91
68807;BME280;55800;54.272;18.558;2023-02-01T08:36:53;99214.44;;;4.33;78.04
68807;BME280;55800;54.272;18.558;2023-02-01T08:39:29;99227.50;;;4.37;78.08
68807;BME280;55800;54.272;18.558;2023-02-01T08:41:58;99216.81;;;4.40;77.71
68807;BME280;55800;54.272;18.558;2023-02-01T08:44:46;99207.72;;;4.47;77.74
68807;BME280;55800;54.272;18.558;2023-02-01T08:47:16;99208.53;;;4.49;77.66
68807;BME280;55800;54.272;18.558;2023-02-01T08:49:45;99212.88;;;4.50;77.48
68807;BME280;55800;54.272;18.558;2023-02-01T08:52:14;99215.44;;;4.52;77.22
68807;BME280;55800;54.272;18.558;2023-02-01T08:54:45;99196.09;;;4.51;77.26
68807;BME280;55800;54.272;18.558;2023-02-01T08:57:15;99201.25;;;4.54;77.46
68807;BME280;55800;54.272;18.558;2023-02-01T08:59:45;99198.56;;;4.56;77.14
68807;BME280;55800;54.272;18.558;2023-02-01T09:02:15;99202.84;;;4.58;76.65
68807;BME280;55800;54.272;18.558;2023-02-01T09:04:45;99202.72;;;4.61;76.82
68807;BME280;55800;54.272;18.558;2023-02-01T09:07:14;99198.22;;;4.63;77.22
68807;BME280;55800;54.272;18.558;2023-02-01T09:09:47;99199.84;;;4.67;77.08
68807;BME280;55800;54.272;18.558;2023-02-01T09:12:16;99201.44;;;4.71;76.41
68807;BME280;55800;54.272;18.558;2023-02-01T09:14:46;99195.25;;;4.71;75.92
68807;BME280;55800;54.272;18.558;2023-02-01T09:17:15;99194.44;;;4.70;75.72
68807;BME280;55800;54.272;18.558;2023-02-01T09:19:45;99191.63;;;4.73;75.82
68807;BME280;55800;54.272;18.558;2023-02-01T09:22:15;99204.75;;;4.77;75.82
68807;BME280;55800;54.272;18.558;2023-02-01T09:24:47;99194.03;;;4.80;75.37
68807;BME280;55800;54.272;18.558;2023-02-01T09:27:16;99192.19;;;4.82;75.55
68807;BME280;55800;54.272;18.558;2023-02-01T09:29:45;99192.06;;;4.85;74.86
68807;BME280;55800;54.272;18.558;2023-02-01T09:32:18;99197.97;;;4.91;75.21
68807;BME280;55800;54.272;18.558;2023-02-01T09:34:47;99195.19;;;4.94;75.43
68807;BME280;55800;54.272;18.558;2023-02-01T09:37:16;99201.22;;;4.98;74.82
68807;BME280;55800;54.272;18.558;2023-02-01T09:39:47;99221.34;;;5.02;74.64
68807;BME280;55800;54.272;18.558;2023-02-01T09:42:40;99225.66;;;5.04;74.87
68807;BME280;55800;54.272;18.558;2023-02-01T09:45:20;99229.03;;;5.08;75.13
68807;BME280;55800;54.272;18.558;2023-02-01T09:47:55;99227.00;;;5.14;75.35
68807;BME280;55800;54.272;18.558;2023-02-01T09:50:33;99226.00;;;5.17;74.75
68807;BME280;55800;54.272;18.558;2023-02-01T09:53:05;99227.69;;;5.19;74.18
68807;BME280;55800;54.272;18.558;2023-02-01T09:55:42;99221.59;;;5.17;74.15
68807;BME280;55800;54.272;18.558;2023-02-01T09:58:19;99233.03;;;5.18;74.04
68807;BME280;55800;54.272;18.558;2023-02-01T10:00:53;99226.63;;;5.23;74.05
68807;BME280;55800;54.272;18.558;2023-02-01T10:03:24;99234.38;;;5.28;74.31
68807;BME280;55800;54.272;18.558;2023-02-01T10:06:29;99235.81;;;5.35;73.99
68807;BME280;55800;54.272;18.558;2023-02-01T10:09:10;99235.69;;;5.38;74.25
68807;BME280;55800;54.272;18.558;2023-02-01T10:11:52;99246.03;;;5.44;74.26
68807;BME280;55800;54.272;18.558;2023-02-01T10:14:41;99260.75;;;5.51;73.97
68807;BME280;55800;54.272;18.558;2023-02-01T10:17:30;99265.00;;;5.55;74.54
68807;BME280;55800;54.272;18.558;2023-02-01T10:20:08;99274.00;;;5.51;75.15
68807;BME280;55800;54.272;18.558;2023-02-01T10:22:45;99275.88;;;5.49;75.60
68807;BME280;55800;54.272;18.558;2023-02-01T10:25:38;99268.81;;;5.48;75.89
68807;BME280;55800;54.272;18.558;2023-02-01T10:28:15;99276.91;;;5.45;75.42
68807;BME280;55800;54.272;18.558;2023-02-01T10:30:46;99267.13;;;5.47;75.92
68807;BME280;55800;54.272;18.558;2023-02-01T10:33:18;99265.19;;;5.50;75.75
68807;BME280;55800;54.272;18.558;2023-02-01T10:35:53;99273.25;;;5.47;75.43
68807;BME280;55800;54.272;18.558;2023-02-01T10:38:27;99270.41;;;5.52;75.54
68807;BME280;55800;54.272;18.558;2023-02-01T10:41:00;99279.34;;;5.49;75.73
68807;BME280;55800;54.272;18.558;2023-02-01T10:43:33;99275.59;;;5.55;75.20
68807;BME280;55800;54.272;18.558;2023-02-01T10:46:02;99268.50;;;5.56;74.92
68807;BME280;55800;54.272;18.558;2023-02-01T10:48:34;99277.44;;;5.53;74.59
68807;BME280;55800;54.272;18.558;2023-02-01T10:51:07;99288.69;;;5.58;74.80
68807;BME280;55800;54.272;18.558;2023-02-01T10:53:44;99281.03;;;5.52;74.37
68807;BME280;55800;54.272;18.558;2023-02-01T10:56:23;99295.22;;;5.51;74.45
68807;BME280;55800;54.272;18.558;2023-02-01T10:59:01;99271.22;;;5.54;74.40
68807;BME280;55800;54.272;18.558;2023-02-01T11:01:33;99276.47;;;5.56;74.17
68807;BME280;55800;54.272;18.558;2023-02-01T11:04:05;99275.59;;;5.55;73.88
68807;BME280;55800;54.272;18.558;2023-02-01T11:06:37;99285.34;;;5.54;74.29
68807;BME280;55800;54.272;18.558;2023-02-01T11:09:16;99285.06;;;5.61;73.97
68807;BME280;55800;54.272;18.558;2023-02-01T11:11:56;99281.44;;;5.63;73.78
68807;BME280;55800;54.272;18.558;2023-02-01T11:14:35;99293.03;;;5.61;73.58
68807;BME280;55800;54.272;18.558;2023-02-01T11:17:25;99284.34;;;5.57;74.17
68807;BME280;55800;54.272;18.558;2023-02-01T11:20:00;99284.47;;;5.54;74.06
68807;BME280;55800;54.272;18.558;2023-02-01T11:22:34;99278.38;;;5.52;74.92
68807;BME280;55800;54.272;18.558;2023-02-01T11:25:09;99281.03;;;5.52;75.10
68807;BME280;55800;54.272;18.558;2023-02-01T11:27:41;99290.63;;;5.54;74.99
68807;BME280;55800;54.272;18.558;2023-02-01T11:30:32;99277.31;;;5.56;74.96
68807;BME280;55800;54.272;18.558;2023-02-01T11:33:01;99281.09;;;5.50;74.91
68807;BME280;55800;54.272;18.558;2023-02-01T11:35:37;99280.38;;;5.47;75.15
68807;BME280;55800;54.272;18.558;2023-02-01T11:38:17;99282.41;;;5.40;75.09
68807;BME280;55800;54.272;18.558;2023-02-01T11:40:50;99271.13;;;5.35;75.37
68807;BME280;55800;54.272;18.558;2023-02-01T11:43:24;99273.66;;;5.38;75.68
68807;BME280;55800;54.272;18.558;2023-02-01T11:45:57;99272.63;;;5.42;75.55
68807;BME280;55800;54.272;18.558;2023-02-01T11:48:28;99254.69;;;5.47;75.63
68807;BME280;55800;54.272;18.558;2023-02-01T11:51:10;99256.53;;;5.47;75.65
68807;BME280;55800;54.272;18.558;2023-02-01T11:53:58;99268.50;;;5.56;75.73
68807;BME280;55800;54.272;18.558;2023-02-01T11:56:36;99260.41;;;5.59;75.77
68807;BME280;55800;54.272;18.558;2023-02-01T11:59:23;99283.22;;;5.63;76.12
68807;BME280;55800;54.272;18.558;2023-02-01T12:02:29;99273.34;;;5.66;75.85
68807;BME280;55800;54.272;18.558;2023-02-01T12:05:32;99273.34;;;5.66;75.38
68807;BME280;55800;54.272;18.558;2023-02-01T12:08:26;99284.88;;;5.65;75.25
68807;BME280;55800;54.272;18.558;2023-02-01T12:11:20;99285.78;;;5.64;74.76
68807;BME280;55800;54.272;18.558;2023-02-01T12:13:59;99278.78;;;5.63;74.81
68807;BME280;55800;54.272;18.558;2023-02-01T12:16:37;99285.66;;;5.67;75.04
68807;BME280;55800;54.272;18.558;2023-02-01T12:19:28;99294.78;;;5.60;74.51
68807;BME280;55800;54.272;18.558;2023-02-01T12:22:12;99289.75;;;5.54;74.88
68807;BME280;55800;54.272;18.558;2023-02-01T12:25:11;99306.88;;;5.47;75.27
68807;BME280;55800;54.272;18.558;2023-02-01T12:28:00;99298.09;;;5.45;75.20
68807;BME280;55800;54.272;18.558;2023-02-01T12:33:37;99295.72;;;5.39;75.53
68807;BME280;55800;54.272;18.558;2023-02-01T12:36:19;99303.06;;;5.32;75.79
68807;BME280;55800;54.272;18.558;2023-02-01T12:38:56;99297.34;;;5.21;76.02
68807;BME280;55800;54.272;18.558;2023-02-01T12:41:41;99303.75;;;5.16;76.66
68807;BME280;55800;54.272;18.558;2023-02-01T12:44:34;99310.84;;;5.15;76.99
68807;BME280;55800;54.272;18.558;2023-02-01T12:47:11;99316.56;;;5.26;77.25
68807;BME280;55800;54.272;18.558;2023-02-01T12:49:49;99324.47;;;5.28;77.13
68807;BME280;55800;54.272;18.558;2023-02-01T12:52:26;99319.78;;;5.13;76.31
68807;BME280;55800;54.272;18.558;2023-02-01T12:55:06;99310.53;;;5.01;75.88
68807;BME280;55800;54.272;18.558;2023-02-01T12:57:43;99314.34;;;4.94;75.63
68807;BME280;55800;54.272;18.558;2023-02-01T13:00:21;99308.50;;;4.86;75.54
68807;BME280;55800;54.272;18.558;2023-02-01T13:02:59;99302.66;;;4.78;75.69
68807;BME280;55800;54.272;18.558;2023-02-01T13:05:34;99299.44;;;4.70;75.51
68807;BME280;55800;54.272;18.558;2023-02-01T13:08:09;99291.75;;;4.64;75.58
68807;BME280;55800;54.272;18.558;2023-02-01T13:10:42;99291.59;;;4.67;75.88
68807;BME280;55800;54.272;18.558;2023-02-01T13:13:17;99276.66;;;4.66;75.99
68807;BME280;55800;54.272;18.558;2023-02-01T13:15:49;99285.66;;;4.62;76.54
68807;BME280;55800;54.272;18.558;2023-02-01T13:18:25;99280.97;;;4.68;76.74
68807;BME280;55800;54.272;18.558;2023-02-01T13:21:05;99275.28;;;4.78;76.43
68807;BME280;55800;54.272;18.558;2023-02-01T13:23:39;99292.75;;;4.83;76.48
68807;BME280;55800;54.272;18.558;2023-02-01T13:26:09;99285.78;;;4.81;76.51
68807;BME280;55800;54.272;18.558;2023-02-01T13:28:44;99278.56;;;4.84;76.22
68807;BME280;55800;54.272;18.558;2023-02-01T13:31:27;99285.78;;;4.81;76.21
68807;BME280;55800;54.272;18.558;2023-02-01T13:34:32;99286.69;;;4.80;76.23
68807;BME280;55800;54.272;18.558;2023-02-01T13:37:14;99291.88;;;4.83;76.26
68807;BME280;55800;54.272;18.558;2023-02-01T13:39:59;99293.66;;;4.82;76.75
68807;BME280;55800;54.272;18.558;2023-02-01T13:42:47;99290.22;;;4.80;76.57
68807;BME280;55800;54.272;18.558;2023-02-01T13:45:21;99300.00;;;4.78;76.70
68807;BME280;55800;54.272;18.558;2023-02-01T13:47:53;99302.97;;;4.70;76.51
68807;BME280;55800;54.272;18.558;2023-02-01T13:50:27;99302.16;;;4.68;76.57